Time;durP1;ratioP1;P1;durP2;ratioP2;P2;SDS_P1;SDS_P2;PMS_P1;PMS_P2;Temp;Humidity;BMP_temperature;BMP_pressure;BME280_temperature;BME280_humidity;BME280_pressure;Samples;Min_cycle;Max_cycle;Signal;HPM_P1;HPM_P2
2022/10/25 00:00:01;;;;;;;;;2.00;2.00;;;;;15.75;74.61;101108.84;4976964;28;45437;-69
2022/10/25 00:02:32;;;;;;;;;2.25;1.00;;;;;15.76;74.26;101103.31;4977334;28;45545;-67
2022/10/25 00:04:58;;;;;;;;;1.33;1.00;;;;;15.73;74.93;101108.19;4977988;28;46898;-69
2022/10/25 00:07:23;;;;;;;;;0.33;0.33;;;;;14.93;74.84;100986.59;4995540;28;46257;-67
2022/10/25 00:09:49;;;;;;;;;2.00;2.00;;;;;15.10;74.58;101013.22;4980369;28;45401;-74
2022/10/25 00:12:14;;;;;;;;;1.00;0.33;;;;;15.52;74.98;101101.47;4979308;28;45510;-69
2022/10/25 00:14:39;;;;;;;;;0.00;0.00;;;;;15.69;74.98;101117.59;4980200;28;45598;-69
2022/10/25 00:17:05;;;;;;;;;2.67;1.00;;;;;15.12;75.06;101023.75;4995099;28;46256;-68
2022/10/25 00:19:30;;;;;;;;;1.00;1.00;;;;;15.52;74.90;101085.38;4980804;28;45363;-70
2022/10/25 00:21:55;;;;;;;;;2.00;1.00;;;;;15.68;74.92;101113.22;4995761;28;45609;-70
2022/10/25 00:24:21;;;;;;;;;3.33;1.33;;;;;15.60;75.01;101105.16;4994976;28;59067;-68
2022/10/25 00:26:46;;;;;;;;;2.33;2.00;;;;;15.68;75.22;101113.22;4995155;28;45827;-67
2022/10/25 00:29:11;;;;;;;;;3.67;0.33;;;;;15.07;74.97;101013.56;4978840;28;45327;-69
2022/10/25 00:31:37;;;;;;;;;2.67;2.00;;;;;15.16;75.26;101041.16;4980509;28;45605;-69
2022/10/25 00:34:03;;;;;;;;;0.33;0.33;;;;;15.62;75.29;101111.22;4979786;28;46848;-68
2022/10/25 00:36:28;;;;;;;;;4.33;0.00;;;;;15.58;75.66;101116.03;4980328;28;45290;-69
2022/10/25 00:38:56;;;;;;;;;2.33;0.00;;;;;15.50;75.73;101091.91;4977329;28;45806;-68
2022/10/25 00:41:28;;;;;;;;;2.00;1.00;;;;;15.53;75.50;101108.50;4978897;28;45518;-69
2022/10/25 00:44:15;;;;;;;;;0.25;0.00;;;;;15.59;75.46;101108.84;4977950;28;46505;-69
2022/10/25 00:46:41;;;;;;;;;1.33;1.33;;;;;15.46;75.67;101101.31;4979070;28;45316;-68
2022/10/25 00:49:20;;;;;;;;;3.33;2.67;;;;;15.49;75.53;101106.31;4978752;28;45494;-69
2022/10/25 00:51:50;;;;;;;;;3.67;2.67;;;;;15.58;75.84;101109.84;4979882;28;45237;-67
2022/10/25 00:54:23;;;;;;;;;1.00;1.00;;;;;15.19;75.43;101057.75;4979273;28;45628;-67
2022/10/25 00:56:51;;;;;;;;;1.25;1.25;;;;;15.59;75.76;101123.09;4979709;28;45350;-69
2022/10/25 00:59:25;;;;;;;;;2.00;1.00;;;;;15.52;75.40;101106.81;4979871;28;45529;-68
2022/10/25 01:01:53;;;;;;;;;1.75;1.00;;;;;15.58;75.76;101125.91;4979862;28;45306;-66
2022/10/25 01:04:23;;;;;;;;;2.00;1.67;;;;;15.07;75.68;101052.88;4979468;28;46475;-69
2022/10/25 01:06:50;;;;;;;;;1.00;1.00;;;;;15.51;76.02;101125.75;4977951;28;45580;-69
2022/10/25 01:09:19;;;;;;;;;4.00;1.00;;;;;15.34;76.06;101099.94;4977922;28;45436;-68
2022/10/25 01:11:44;;;;;;;;;3.67;2.00;;;;;15.11;76.23;101068.44;4979799;28;45494;-70
2022/10/25 01:14:13;;;;;;;;;2.00;1.00;;;;;15.39;76.13;101113.69;4979144;28;45380;-73
2022/10/25 01:16:57;;;;;;;;;4.00;2.25;;;;;15.46;76.30;101126.25;4979175;28;45219;-68
2022/10/25 01:19:54;;;;;;;;;1.00;1.00;;;;;15.45;76.21;101131.78;4979135;28;45311;-67
2022/10/25 01:22:49;;;;;;;;;1.67;1.00;;;;;15.48;76.21;101126.09;4978969;28;45392;-68
2022/10/25 01:25:51;;;;;;;;;1.00;1.00;;;;;15.50;76.18;101126.75;4973033;28;46764;-70
2022/10/25 01:28:22;;;;;;;;;9.00;1.33;;;;;15.46;76.12;101128.94;4978879;28;45478;-70
2022/10/25 01:31:16;;;;;;;;;3.67;2.33;;;;;15.46;76.34;101139.66;4979309;28;45722;-68
2022/10/25 01:33:53;;;;;;;;;1.33;1.33;;;;;14.88;76.19;101035.28;4979098;28;45635;-69
2022/10/25 01:36:36;;;;;;;;;3.00;2.00;;;;;15.49;76.08;101139.31;4978724;28;46663;-68
2022/10/25 01:39:13;;;;;;;;;1.67;1.67;;;;;15.45;76.32;101129.94;4978610;28;45393;-69
2022/10/25 01:42:11;;;;;;;;;1.33;1.00;;;;;15.38;76.04;101125.41;4978898;28;45466;-68
2022/10/25 01:44:58;;;;;;;;;3.33;2.00;;;;;15.40;76.45;101128.75;4978829;28;45317;-67
2022/10/25 01:47:28;;;;;;;;;2.00;0.67;;;;;15.37;76.14;101124.56;4977014;28;48291;-69
2022/10/25 01:50:01;;;;;;;;;5.00;1.67;;;;;15.31;76.86;101148.50;4979196;28;45500;-69
2022/10/25 01:52:26;;;;;;;;;2.67;1.67;;;;;14.52;77.06;101006.09;4976923;28;45462;-69
2022/10/25 01:54:52;;;;;;;;;2.33;2.33;;;;;14.49;76.90;101002.91;4979000;28;45295;-68
2022/10/25 01:57:36;;;;;;;;;3.33;2.00;;;;;15.22;76.99;101126.25;4978666;28;46560;-67
2022/10/25 02:00:06;;;;;;;;;2.67;0.67;;;;;15.21;77.11;101125.38;4978623;28;45474;-68
2022/10/25 02:02:45;;;;;;;;;5.00;3.33;;;;;14.50;77.08;101017.97;4978450;28;45265;-69
2022/10/25 02:05:41;;;;;;;;;3.00;1.00;;;;;15.16;77.53;101126.88;4977279;28;45358;-68
2022/10/25 02:08:41;;;;;;;;;1.67;1.33;;;;;15.17;77.26;101133.91;4978297;28;46250;-68
2022/10/25 02:11:23;;;;;;;;;1.67;0.33;;;;;15.07;77.18;101111.81;4980446;28;46270;-68
2022/10/25 02:14:25;;;;;;;;;3.67;3.00;;;;;15.00;77.23;101102.72;4992945;28;45453;-68
2022/10/25 02:16:57;;;;;;;;;3.67;2.67;;;;;14.31;77.10;100987.78;4978707;28;45507;-67
2022/10/25 02:19:29;;;;;;;;;2.00;2.00;;;;;14.47;77.33;101013.78;4978153;28;46157;-69
2022/10/25 02:21:56;;;;;;;;;2.00;1.00;;;;;14.62;77.48;101064.84;4970378;28;45371;-68
2022/10/25 02:24:25;;;;;;;;;2.00;2.00;;;;;15.11;77.43;101142.59;4978404;28;45316;-68
2022/10/25 02:26:53;;;;;;;;;3.00;1.00;;;;;14.52;77.69;101051.59;4977824;28;45717;-67
2022/10/25 02:29:21;;;;;;;;;3.00;3.00;;;;;15.08;77.65;101133.06;4978225;28;46516;-67
2022/10/25 02:31:47;;;;;;;;;3.00;3.00;;;;;14.54;77.74;101056.78;4977689;28;45372;-67
2022/10/25 02:34:12;;;;;;;;;3.00;2.00;;;;;15.05;77.64;101132.56;4978153;28;45227;-69
2022/10/25 02:36:37;;;;;;;;;3.00;2.67;;;;;15.10;77.38;101157.00;4976677;28;45583;-68
2022/10/25 02:39:04;;;;;;;;;2.67;2.67;;;;;15.13;77.32;101143.28;4992902;28;47474;-76
2022/10/25 02:41:29;;;;;;;;;2.00;1.33;;;;;15.05;77.66;101143.25;4978033;28;45465;-68
2022/10/25 02:43:54;;;;;;;;;5.33;1.67;;;;;14.93;77.68;101121.28;4977807;28;45179;-68
2022/10/25 02:46:21;;;;;;;;;2.00;1.00;;;;;15.16;77.81;101153.66;4978435;28;45600;-68
2022/10/25 02:48:47;;;;;;;;;1.33;1.33;;;;;15.11;77.65;101142.59;4976141;28;48971;-67
2022/10/25 02:51:13;;;;;;;;;3.33;1.67;;;;;15.15;77.78;101155.50;4977434;28;45456;-69
2022/10/25 02:53:39;;;;;;;;;3.00;2.00;;;;;14.97;77.42;101122.63;4977632;28;45462;-68
2022/10/25 02:56:08;;;;;;;;;0.67;0.67;;;;;15.08;77.55;101124.19;4970102;28;45551;-69
2022/10/25 02:58:37;;;;;;;;;3.33;2.67;;;;;15.21;77.26;101140.59;4977482;28;49145;-69
2022/10/25 03:01:03;;;;;;;;;2.00;2.00;;;;;15.16;76.63;101116.16;4977429;28;45418;-67
2022/10/25 03:03:29;;;;;;;;;1.00;1.00;;;;;14.56;76.94;101001.25;4977317;28;45436;-68
2022/10/25 03:05:56;;;;;;;;;3.00;0.00;;;;;15.36;76.62;101119.38;4993229;28;45552;-69
2022/10/25 03:08:22;;;;;;;;;2.67;0.67;;;;;15.43;76.50;101133.78;4978833;28;45257;-67
2022/10/25 03:10:48;;;;;;;;;2.00;1.00;;;;;14.91;76.37;101043.00;4977068;28;46494;-69
2022/10/25 03:13:14;;;;;;;;;1.00;1.00;;;;;14.99;76.18;101058.22;4978096;28;45378;-68
2022/10/25 03:15:39;;;;;;;;;4.00;3.33;;;;;15.61;75.97;101152.41;4992979;28;45544;-70
2022/10/25 03:18:04;;;;;;;;;1.50;1.25;;;;;15.65;75.67;101159.13;4975775;28;48068;-69
2022/10/25 03:20:30;;;;;;;;;2.33;0.33;;;;;15.53;75.55;101119.22;4977614;28;45206;-69
2022/10/25 03:22:55;;;;;;;;;1.25;1.25;;;;;15.44;75.58;101103.31;4977345;28;45499;-71
2022/10/25 03:25:21;;;;;;;;;2.33;2.33;;;;;15.67;75.35;101141.88;4968797;28;55255;-67
2022/10/25 03:27:46;;;;;;;;;3.67;1.00;;;;;15.70;75.44;101152.25;4977247;28;45924;-67
2022/10/25 03:30:13;;;;;;;;;1.00;1.00;;;;;15.68;75.45;101142.72;4977221;28;45341;-67
2022/10/25 03:32:38;;;;;;;;;2.25;1.00;;;;;15.66;75.25;101144.72;4977471;28;45310;-69
2022/10/25 03:35:04;;;;;;;;;0.00;0.00;;;;;15.74;75.18;101150.91;4977128;28;45448;-71
2022/10/25 03:37:29;;;;;;;;;2.67;2.00;;;;;15.27;74.93;101075.66;4977324;28;46961;-69
2022/10/25 03:39:55;;;;;;;;;2.00;2.00;;;;;15.38;75.18;101096.75;4975846;28;47595;-71
2022/10/25 03:42:20;;;;;;;;;1.00;1.00;;;;;15.74;74.85;101142.03;4976964;28;45280;-69
2022/10/25 03:44:46;;;;;;;;;2.00;2.00;;;;;15.85;74.71;101160.47;4977194;28;45230;-69
2022/10/25 03:47:11;;;;;;;;;3.67;2.67;;;;;15.75;74.64;101146.38;4976925;28;46589;-69
2022/10/25 03:49:36;;;;;;;;;1.00;1.00;;;;;15.80;74.28;101155.59;4976968;28;45270;-68
2022/10/25 03:52:04;;;;;;;;;2.33;1.00;;;;;15.84;74.36;101166.00;4992153;28;45378;-69
2022/10/25 03:54:30;;;;;;;;;3.00;3.00;;;;;15.90;73.91;101173.38;4976843;28;45561;-68
2022/10/25 03:56:56;;;;;;;;;3.33;2.33;;;;;15.92;73.94;101169.50;4975461;28;47198;-68
2022/10/25 03:59:21;;;;;;;;;2.33;1.00;;;;;15.67;73.89;101128.47;4976844;28;48372;-68
2022/10/25 04:01:46;;;;;;;;;1.67;1.00;;;;;13.91;73.49;100851.31;4976823;28;45350;-69
2022/10/25 04:04:11;;;;;;;;;1.00;1.00;;;;;15.58;73.47;101110.66;4977420;28;45436;-68
2022/10/25 04:06:37;;;;;;;;;5.00;1.00;;;;;16.03;73.40;101171.88;4975887;28;62533;-68
2022/10/25 04:09:02;;;;;;;;;3.67;2.00;;;;;15.48;73.19;101073.34;4976600;28;45504;-69
2022/10/25 04:11:28;;;;;;;;;3.00;1.33;;;;;15.97;73.06;101152.91;4977079;28;45394;-69
2022/10/25 04:13:53;;;;;;;;;3.67;3.00;;;;;16.07;73.29;101178.56;4976393;28;45384;-68
2022/10/25 04:16:18;;;;;;;;;4.00;3.00;;;;;15.30;73.17;101037.00;4976554;28;45497;-67
2022/10/25 04:18:44;;;;;;;;;2.33;2.33;;;;;16.05;72.99;101156.44;4976585;28;45302;-69
2022/10/25 04:21:09;;;;;;;;;2.00;2.00;;;;;15.13;72.79;101006.69;4991455;28;45322;-68
2022/10/25 04:23:34;;;;;;;;;2.00;2.00;;;;;16.11;73.34;101160.28;4975521;28;45628;-69
2022/10/25 04:26:00;;;;;;;;;3.67;3.00;;;;;15.69;73.04;101086.25;4976392;28;45539;-69
2022/10/25 04:28:25;;;;;;;;;4.00;3.00;;;;;15.98;73.12;101135.81;4976720;28;45365;-68
2022/10/25 04:30:51;;;;;;;;;2.00;2.00;;;;;15.61;73.25;101069.31;4976110;28;49684;-68
2022/10/25 04:33:17;;;;;;;;;2.67;2.67;;;;;16.20;72.95;101169.13;4976390;28;45531;-68
2022/10/25 04:35:42;;;;;;;;;1.67;1.67;;;;;16.07;73.37;101170.50;4975234;28;47219;-68
2022/10/25 04:38:09;;;;;;;;;4.00;4.00;;;;;16.21;73.85;101178.84;4976388;28;45488;-69
2022/10/25 04:40:35;;;;;;;;;6.67;3.00;;;;;16.04;73.47;101153.94;4991760;28;45525;-69
2022/10/25 04:43:01;;;;;;;;;3.00;2.67;;;;;16.20;73.64;101180.69;4976808;28;45437;-69
2022/10/25 04:45:28;;;;;;;;;2.00;2.00;;;;;16.17;73.58;101169.47;4976274;28;45913;-69
2022/10/25 04:47:53;;;;;;;;;2.67;2.00;;;;;16.17;73.35;101175.69;4975120;28;45562;-69
2022/10/25 04:50:19;;;;;;;;;3.67;3.67;;;;;16.14;73.79;101181.38;4977006;28;45301;-70
2022/10/25 04:52:44;;;;;;;;;5.00;2.00;;;;;15.52;73.86;101085.38;4979827;28;45518;-69
2022/10/25 04:55:09;;;;;;;;;10.67;10.00;;;;;16.04;74.18;101176.22;4979329;28;46508;-69
2022/10/25 04:57:35;;;;;;;;;3.33;2.00;;;;;15.42;74.21;101076.69;4979897;28;45341;-69
2022/10/25 05:00:00;;;;;;;;;3.33;2.00;;;;;15.98;74.67;101187.59;4979934;28;45484;-68
2022/10/25 05:02:25;;;;;;;;;3.67;3.00;;;;;15.77;74.90;101163.13;4979797;28;45320;-69
2022/10/25 05:04:51;;;;;;;;;5.33;3.00;;;;;15.56;74.83;101122.56;4979242;28;46211;-69
2022/10/25 05:07:18;;;;;;;;;3.00;2.00;;;;;15.87;75.35;101174.56;4979182;28;45512;-68
2022/10/25 05:09:43;;;;;;;;;2.67;2.00;;;;;15.85;74.70;101173.88;4979648;28;45287;-70
2022/10/25 05:12:09;;;;;;;;;3.00;1.00;;;;;15.89;75.03;101185.09;4994214;28;45245;-71
2022/10/25 05:14:34;;;;;;;;;5.67;3.67;;;;;15.88;75.24;101192.31;4987060;28;61568;-68
2022/10/25 05:16:59;;;;;;;;;2.00;2.00;;;;;15.89;75.13;101183.25;4978891;28;45397;-69
2022/10/25 05:19:25;;;;;;;;;5.33;3.33;;;;;15.88;75.11;101184.25;4979083;28;46688;-69
2022/10/25 05:21:50;;;;;;;;;4.00;4.00;;;;;15.79;75.52;101187.94;4978283;28;45537;-70
2022/10/25 05:24:16;;;;;;;;;1.33;1.33;;;;;15.74;75.36;101184.94;4978884;28;46541;-68
2022/10/25 05:26:41;;;;;;;;;4.33;4.33;;;;;15.71;75.84;101190.63;4979447;28;46282;-69
2022/10/25 05:29:10;;;;;;;;;6.00;3.67;;;;;15.64;76.20;101185.09;4978329;28;45846;-69
2022/10/25 05:31:38;;;;;;;;;2.00;2.00;;;;;15.50;76.14;101162.44;4977644;28;45630;-69
2022/10/25 05:34:03;;;;;;;;;5.33;3.33;;;;;15.26;76.43;101132.94;4978228;28;46854;-69
2022/10/25 05:36:29;;;;;;;;;4.00;3.00;;;;;15.60;76.39;101197.13;4979034;28;45501;-69
2022/10/25 05:38:54;;;;;;;;;9.33;3.33;;;;;15.20;76.69;101145.13;4979040;28;45568;-68
2022/10/25 05:41:20;;;;;;;;;3.67;3.67;;;;;14.84;76.97;101063.41;4978690;28;45441;-70
2022/10/25 05:43:46;;;;;;;;;5.33;2.33;;;;;15.12;77.20;101114.81;4978458;28;46636;-69
2022/10/25 05:46:14;;;;;;;;;4.00;3.00;;;;;15.59;76.85;101194.63;4978872;28;45317;-70
2022/10/25 05:48:40;;;;;;;;;5.00;3.00;;;;;15.46;77.22;101173.66;4979742;28;45441;-70
2022/10/25 05:51:19;;;;;;;;;4.67;4.00;;;;;15.61;77.21;101196.13;4978633;28;45433;-69
2022/10/25 05:53:46;;;;;;;;;6.33;5.33;;;;;15.60;76.89;101182.88;4971925;28;47354;-70
2022/10/25 05:56:13;;;;;;;;;5.00;2.67;;;;;15.23;76.79;101127.91;4978307;28;45426;-70
2022/10/25 05:58:39;;;;;;;;;5.67;4.00;;;;;15.54;76.97;101162.94;4970153;28;45561;-72
2022/10/25 06:01:05;;;;;;;;;5.33;3.33;;;;;15.58;76.24;101164.28;4994439;28;45330;-70
2022/10/25 06:03:31;;;;;;;;;4.00;4.00;;;;;15.73;76.57;101199.34;4992493;28;47701;-70
2022/10/25 06:06:01;;;;;;;;;4.00;3.00;;;;;15.74;76.48;101196.47;4977901;28;45488;-69
2022/10/25 06:08:27;;;;;;;;;6.00;4.67;;;;;15.35;76.46;101129.25;4992308;28;45518;-70
2022/10/25 06:10:52;;;;;;;;;3.00;3.00;;;;;15.78;76.23;101207.72;4993450;28;45495;-70
2022/10/25 06:13:18;;;;;;;;;3.67;3.33;;;;;15.71;76.41;101188.78;4976467;28;45453;-68
2022/10/25 06:15:43;;;;;;;;;4.00;4.00;;;;;15.79;76.32;101201.34;4977255;28;45498;-68
2022/10/25 06:18:09;;;;;;;;;2.75;2.75;;;;;15.75;76.00;101186.59;4978669;28;45318;-69
2022/10/25 06:20:34;;;;;;;;;3.00;3.00;;;;;15.47;75.81;101144.00;4977602;28;45387;-69
2022/10/25 06:22:59;;;;;;;;;3.00;3.00;;;;;15.52;75.89;101154.22;4979351;28;51988;-69
2022/10/25 06:25:25;;;;;;;;;4.33;3.33;;;;;15.79;75.89;101212.91;4978337;28;45426;-70
2022/10/25 06:27:50;;;;;;;;;2.00;2.00;;;;;15.60;76.03;101156.94;4993593;28;45458;-71
2022/10/25 06:30:15;;;;;;;;;3.33;3.33;;;;;15.42;75.64;101138.31;4977002;28;45440;-69
2022/10/25 06:32:40;;;;;;;;;6.00;3.00;;;;;14.99;75.74;101066.25;4974267;28;53283;-71
2022/10/25 06:35:06;;;;;;;;;2.00;1.00;;;;;15.74;75.65;101182.25;4975248;28;47848;-70
2022/10/25 06:37:31;;;;;;;;;4.00;2.00;;;;;15.86;75.65;101228.34;4978762;28;45581;-70
2022/10/25 06:39:57;;;;;;;;;6.33;3.00;;;;;15.88;75.65;101215.59;4979646;28;45163;-78
2022/10/25 06:42:22;;;;;;;;;1.25;1.25;;;;;15.91;75.37;101213.41;4979926;28;46213;-70
2022/10/25 06:44:47;;;;;;;;;5.33;3.67;;;;;15.85;75.45;101197.19;4978921;28;45524;-70
2022/10/25 06:47:13;;;;;;;;;4.67;4.67;;;;;15.97;75.10;101223.47;4978847;28;45413;-71
2022/10/25 06:49:38;;;;;;;;;2.50;2.00;;;;;15.95;75.04;101217.44;4979722;28;45377;-73
2022/10/25 06:52:07;;;;;;;;;5.00;4.00;;;;;15.09;75.16;101073.13;4979847;28;46358;-72
2022/10/25 06:54:32;;;;;;;;;4.00;3.67;;;;;16.03;74.67;101233.56;4975087;28;45622;-71
2022/10/25 06:56:57;;;;;;;;;5.00;3.00;;;;;15.89;74.92;101198.50;4993956;28;45684;-73
2022/10/25 06:59:23;;;;;;;;;4.00;2.33;;;;;15.75;75.00;101179.41;4979778;28;57823;-71
2022/10/25 07:01:48;;;;;;;;;3.00;3.00;;;;;16.06;74.59;101227.00;4979298;28;45395;-74
2022/10/25 07:04:14;;;;;;;;;3.33;1.00;;;;;16.02;74.40;101210.41;4978289;28;45527;-72
2022/10/25 07:06:40;;;;;;;;;3.33;3.33;;;;;15.63;74.17;101151.25;4976777;28;45317;-70
2022/10/25 07:09:08;;;;;;;;;3.00;2.00;;;;;16.25;74.27;101229.34;4977873;28;45318;-74
2022/10/25 07:11:34;;;;;;;;;1.50;1.50;;;;;15.98;73.90;101178.72;4978397;28;45745;-72
2022/10/25 07:14:03;;;;;;;;;5.00;5.00;;;;;16.32;73.66;101237.53;4976963;28;45303;-72
2022/10/25 07:16:29;;;;;;;;;2.33;2.00;;;;;16.16;73.27;101194.63;4989651;28;45542;-70
2022/10/25 07:19:01;;;;;;;;;4.67;4.00;;;;;16.32;73.10;101221.44;4977987;28;45384;-77
2022/10/25 07:21:28;;;;;;;;;5.00;3.00;;;;;16.32;72.69;101227.66;4992515;28;47473;-71
2022/10/25 07:23:54;;;;;;;;;4.00;3.00;;;;;16.27;72.64;101232.69;4977287;28;45356;-71
2022/10/25 07:26:23;;;;;;;;;6.00;3.00;;;;;16.39;72.87;101244.75;4977117;28;45304;-72
2022/10/25 07:28:50;;;;;;;;;2.25;2.25;;;;;15.62;72.64;101117.44;4977868;28;45472;-75
2022/10/25 07:31:24;;;;;;;;;4.00;2.00;;;;;16.45;72.58;101243.25;4978199;28;45759;-72
2022/10/25 07:33:52;;;;;;;;;4.00;3.00;;;;;16.04;72.38;101165.50;4978766;28;45251;-71
2022/10/25 07:36:18;;;;;;;;;3.00;2.33;;;;;16.52;72.23;101232.66;4977763;28;45342;-73
2022/10/25 07:38:43;;;;;;;;;3.33;3.33;;;;;16.02;71.82;101134.50;4977374;28;45576;-72
2022/10/25 07:41:09;;;;;;;;;4.00;3.00;;;;;16.71;71.76;101237.69;4976197;28;46403;-71
2022/10/25 07:43:36;;;;;;;;;3.00;3.00;;;;;16.79;71.42;101247.53;4975573;28;45490;-70
2022/10/25 07:46:02;;;;;;;;;4.00;4.00;;;;;16.88;71.23;101249.22;4975685;28;45623;-72
2022/10/25 07:48:28;;;;;;;;;4.00;3.00;;;;;16.55;71.13;101195.56;4976987;28;45284;-73
2022/10/25 07:50:53;;;;;;;;;4.00;4.00;;;;;17.01;70.77;101247.63;4977044;28;46534;-71
2022/10/25 07:53:18;;;;;;;;;4.00;4.00;;;;;16.78;70.27;101208.28;4977425;28;45498;-71
2022/10/25 07:56:14;;;;;;;;;5.00;2.00;;;;;17.77;69.42;101251.47;4977898;28;45456;-71
2022/10/25 07:58:39;;;;;;;;;4.00;4.00;;;;;17.66;67.81;101238.44;4976622;28;45679;-70
2022/10/25 08:01:09;;;;;;;;;3.25;2.00;;;;;17.80;67.81;101256.50;4977230;28;46387;-73
2022/10/25 08:03:34;;;;;;;;;4.75;4.75;;;;;17.19;67.81;101166.78;4977425;28;45646;-71
2022/10/25 08:06:00;;;;;;;;;3.33;3.33;;;;;17.68;68.27;101252.56;4978382;28;45405;-70
2022/10/25 08:08:26;;;;;;;;;4.25;4.25;;;;;17.60;68.00;101231.88;4979093;28;45303;-72
2022/10/25 08:10:52;;;;;;;;;6.00;6.00;;;;;17.85;67.83;101261.34;4977053;28;46424;-72
2022/10/25 08:13:18;;;;;;;;;8.00;7.00;;;;;17.72;67.73;101226.97;4975343;28;45583;-71
2022/10/25 08:15:55;;;;;;;;;6.00;4.00;;;;;17.71;67.34;101192.19;4977144;28;45317;-73
2022/10/25 08:18:22;;;;;;;;;6.00;3.00;;;;;19.17;64.60;101238.34;4977364;28;45519;-73
2022/10/25 08:20:47;;;;;;;;;4.00;3.50;;;;;20.38;60.76;101213.25;4976690;28;45840;-72
2022/10/25 08:23:13;;;;;;;;;6.75;5.25;;;;;21.27;58.10;101225.03;4977551;28;45452;-72
2022/10/25 08:25:39;;;;;;;;;5.50;4.00;;;;;21.47;56.05;101211.56;4978294;28;45312;-71
2022/10/25 08:28:04;;;;;;;;;5.75;3.50;;;;;22.06;55.40;101225.22;4993339;28;45489;-71
2022/10/25 08:30:32;;;;;;;;;7.75;5.00;;;;;22.94;52.78;101231.16;4979736;28;46901;-72
2022/10/25 08:32:58;;;;;;;;;3.25;3.00;;;;;22.62;50.96;101238.28;4982138;28;45223;-71
2022/10/25 08:35:23;;;;;;;;;11.00;11.00;;;;;22.04;52.74;101240.84;4980991;28;45207;-71
2022/10/25 08:37:49;;;;;;;;;7.50;6.50;;;;;22.03;52.69;101239.16;4979758;28;45452;-71
2022/10/25 08:40:23;;;;;;;;;2.00;2.00;;;;;21.54;52.68;101132.06;4980293;28;46394;-73
2022/10/25 08:43:04;;;;;;;;;10.00;7.00;;;;;21.65;52.50;101127.09;4980491;28;45468;-72
2022/10/25 08:45:37;;;;;;;;;4.00;3.00;;;;;22.54;52.40;101235.81;4980266;28;45243;-70
2022/10/25 08:48:10;;;;;;;;;1.25;1.25;;;;;22.80;50.21;101237.63;4996850;28;45560;-71
2022/10/25 08:50:43;;;;;;;;;3.25;3.25;;;;;22.83;49.40;101117.16;4980483;28;45825;-72
2022/10/25 08:53:22;;;;;;;;;11.00;8.67;;;;;24.62;46.87;101222.59;4972914;28;45411;-71
2022/10/25 08:55:49;;;;;;;;;3.00;3.00;;;;;24.71;45.15;101227.50;4979107;28;45672;-71
2022/10/25 08:58:22;;;;;;;;;4.25;4.00;;;;;24.93;44.43;101170.78;4980414;28;45349;-71
2022/10/25 09:00:48;;;;;;;;;9.00;9.00;;;;;25.96;41.79;101159.69;4980289;28;46228;-71
2022/10/25 09:03:23;;;;;;;;;3.50;3.50;;;;;26.49;40.14;101145.13;4994809;28;45429;-72
2022/10/25 09:06:37;;;;;;;;;2.50;2.50;;;;;27.11;39.53;101231.84;4978617;28;45553;-72
2022/10/25 09:09:17;;;;;;;;;2.00;2.00;;;;;27.93;39.32;101228.78;4961749;28;45642;-71
2022/10/25 09:11:49;;;;;;;;;6.00;4.75;;;;;28.73;38.17;101237.44;4980943;28;46881;-70
2022/10/25 09:14:24;;;;;;;;;1.00;1.00;;;;;28.35;36.72;101229.22;4980559;28;45519;-71
2022/10/25 09:16:52;;;;;;;;;0.25;0.25;;;;;27.33;36.45;101115.44;4980402;28;45546;-76
2022/10/25 09:19:31;;;;;;;;;0.00;0.00;;;;;27.63;37.54;101226.31;4980622;28;45436;-70
2022/10/25 09:22:01;;;;;;;;;1.00;1.00;;;;;26.97;37.76;101196.59;4978976;28;45496;-71
2022/10/25 09:24:28;;;;;;;;;0.75;0.75;;;;;26.49;38.95;101198.84;4979652;28;45248;-72
2022/10/25 09:27:24;;;;;;;;;1.75;0.75;;;;;26.16;39.89;101213.84;4979742;28;45528;-74
2022/10/25 09:29:57;;;;;;;;;5.75;4.50;;;;;25.32;40.44;101135.97;4980114;28;45491;-72
2022/10/25 09:32:41;;;;;;;;;2.50;1.00;;;;;25.11;41.00;101211.59;4972921;28;47226;-71
2022/10/25 09:35:28;;;;;;;;;0.50;0.25;;;;;24.73;42.77;101219.13;4979542;28;45597;-72
2022/10/25 09:38:09;;;;;;;;;2.50;2.00;;;;;24.41;43.34;101232.81;4979713;28;45346;-72
2022/10/25 09:40:44;;;;;;;;;2.50;2.00;;;;;24.03;44.28;101221.19;4980266;28;45332;-72
2022/10/25 09:43:17;;;;;;;;;0.00;0.00;;;;;23.54;44.29;101209.19;4979360;28;47367;-71
2022/10/25 09:45:50;;;;;;;;;0.00;0.00;;;;;22.67;45.27;101197.03;4994420;28;45508;-70
2022/10/25 09:48:41;;;;;;;;;0.75;0.00;;;;;22.41;47.00;101206.03;4979868;28;45325;-73
2022/10/25 09:51:10;;;;;;;;;0.25;0.25;;;;;22.13;47.51;101217.94;4979227;28;45223;-70
2022/10/25 09:53:39;;;;;;;;;0.75;0.75;;;;;21.80;48.12;101207.03;4979351;28;46326;-70
2022/10/25 09:56:05;;;;;;;;;3.00;2.25;;;;;21.55;48.85;101187.03;4978053;28;45465;-74
2022/10/25 09:58:33;;;;;;;;;1.00;1.00;;;;;21.31;49.40;101207.34;4993956;28;45343;-72
2022/10/25 10:01:15;;;;;;;;;2.75;1.00;;;;;21.08;49.88;101217.66;4976200;28;45523;-71
2022/10/25 10:03:41;;;;;;;;;3.00;0.00;;;;;20.97;50.57;101219.03;4978835;28;46660;-71
2022/10/25 10:06:21;;;;;;;;;1.25;1.00;;;;;20.83;51.11;101217.31;4979028;28;45305;-71
2022/10/25 10:08:50;;;;;;;;;0.25;0.00;;;;;20.66;51.94;101214.09;4979228;28;45360;-71
2022/10/25 10:11:18;;;;;;;;;0.00;0.00;;;;;20.23;52.42;101168.28;4979799;28;45472;-71
2022/10/25 10:13:55;;;;;;;;;0.50;0.50;;;;;20.26;52.99;101200.28;4979070;28;46221;-70
2022/10/25 10:16:31;;;;;;;;;0.00;0.00;;;;;19.31;53.71;101070.34;4979775;28;45513;-72
2022/10/25 10:19:18;;;;;;;;;2.00;1.00;;;;;19.93;54.17;101177.59;4977850;28;45448;-71
2022/10/25 10:21:47;;;;;;;;;2.00;1.50;;;;;19.98;54.68;101189.47;4979047;28;45416;-72
2022/10/25 10:24:27;;;;;;;;;1.00;1.00;;;;;19.94;54.66;101203.53;4978956;28;46309;-72
2022/10/25 10:26:56;;;;;;;;;1.75;1.75;;;;;19.10;54.84;101074.72;4981630;28;45467;-72
2022/10/25 10:29:27;;;;;;;;;1.00;1.00;;;;;18.99;55.08;101080.59;4982162;28;45517;-72
2022/10/25 10:31:58;;;;;;;;;2.75;1.00;;;;;19.62;55.71;101200.34;4980047;28;45543;-71
2022/10/25 10:34:29;;;;;;;;;0.00;0.00;;;;;19.65;55.79;101215.31;4977805;28;48471;-69
2022/10/25 10:37:27;;;;;;;;;1.00;1.00;;;;;19.74;56.02;101206.88;4977638;28;45341;-72
2022/10/25 10:40:06;;;;;;;;;2.00;2.00;;;;;19.63;56.42;101180.44;4968889;28;45708;-71
2022/10/25 10:42:34;;;;;;;;;3.00;1.75;;;;;19.70;57.34;101207.47;4979735;28;45440;-70
2022/10/25 10:45:07;;;;;;;;;5.00;3.75;;;;;19.68;57.53;101202.28;4994781;28;48473;-75
2022/10/25 10:47:59;;;;;;;;;3.00;3.00;;;;;19.68;57.52;101204.13;4977691;28;45403;-70
2022/10/25 10:50:30;;;;;;;;;2.50;2.50;;;;;19.62;57.67;101196.78;4977152;28;45616;-71
2022/10/25 10:53:02;;;;;;;;;3.75;3.75;;;;;19.53;58.15;101201.47;4978714;28;45287;-71
2022/10/25 10:55:37;;;;;;;;;6.25;4.00;;;;;19.64;58.04;101186.69;4992181;28;47473;-72
2022/10/25 10:58:14;;;;;;;;;3.00;2.00;;;;;19.72;57.81;101192.75;4977537;28;45409;-70
2022/10/25 11:01:07;;;;;;;;;1.25;1.25;;;;;19.74;57.88;101184.47;4978664;28;45286;-70
2022/10/25 11:03:37;;;;;;;;;3.50;3.50;;;;;19.72;57.72;101194.63;4977367;28;45556;-72
2022/10/25 11:06:05;;;;;;;;;3.33;2.67;;;;;19.57;57.33;101156.09;4977716;28;45601;-70
2022/10/25 11:08:31;;;;;;;;;6.00;5.00;;;;;19.66;57.79;101163.03;4976752;28;45476;-71
2022/10/25 11:11:18;;;;;;;;;1.25;1.25;;;;;19.58;57.59;101177.47;4977705;28;45407;-72
2022/10/25 11:13:59;;;;;;;;;2.75;2.25;;;;;19.51;58.00;101160.38;4990483;28;45619;-71
2022/10/25 11:16:59;;;;;;;;;5.25;4.25;;;;;17.66;58.22;100870.06;4976128;28;46070;-71
2022/10/25 11:19:33;;;;;;;;;2.00;1.00;;;;;19.44;57.82;101154.09;4992426;28;46046;-73
2022/10/25 11:22:14;;;;;;;;;6.33;6.33;;;;;19.46;58.07;101157.41;4978577;28;45494;-72
2022/10/25 11:24:57;;;;;;;;;5.00;3.67;;;;;19.51;57.92;101157.66;4978424;28;45463;-75
2022/10/25 11:27:37;;;;;;;;;3.00;3.00;;;;;19.45;58.27;101161.13;4977470;28;45515;-73
2022/10/25 11:30:19;;;;;;;;;6.67;3.00;;;;;19.26;58.87;101156.38;4979674;28;45600;-72
2022/10/25 11:33:22;;;;;;;;;3.67;3.33;;;;;19.27;58.93;101161.56;4977945;28;45570;-71
2022/10/25 11:36:06;;;;;;;;;5.00;4.67;;;;;19.28;59.20;101160.53;4978482;28;45683;-72
2022/10/25 11:39:00;;;;;;;;;6.67;4.00;;;;;19.25;59.55;101160.09;4976323;28;48015;-71